• Join FlightAware (Why Join?)
  • Login
  • US Flag 
07:31AM EDT


 

Airport Tracker/Info


-or-


 

Live Flight TrackerFlight Track Log ✈ ASQ5272 ✈ 24-Jun-2013 ✈ KDAL - KATL

Flight Track Log - Related Links

Times and Time Zones

All times are in EDT time to prevent confusion due to time zone crossing. See the ASQ5272 flight status page for this flight to view local times or setup timezone preferences in your user account.

Time Position Orientation Groundspeed Altitude Reporting Facility
EDT Latitude Longitude Course Direction KTS MPH feet Rate Location/Type
05:03PM 32.8167 -96.8000 125° Southeast 177 204 2,300  Level Dallas / Fort Worth TRACON
05:04PM 32.7833 -96.7500 128° Southeast 206 237 4,900 2,220 Climbing Dallas / Fort Worth TRACON
05:06PM 32.7556 -96.6056 103° East 212 244 9,400 1,860 Climbing Fort Worth Center
05:07PM 32.7800 -96.5092 73° East 271 312 11,000 1,560 Climbing Fort Worth Center
05:08PM 32.8022 -96.4075 75° East 301 346 12,600 1,440 Climbing Fort Worth Center
05:09PM 32.8286 -96.3033 73° East 324 373 13,900 1,020 Climbing Fort Worth Center
05:10PM 32.8442 -96.1894 81° East 340 391 14,700 900 Climbing Fort Worth Center
05:11PM 32.8511 -96.0583 86° East 375 432 15,700 1,080 Climbing Fort Worth Center
05:12PM 32.8581 -95.9344 86° East 380 437 16,900 1,260 Climbing Fort Worth Center
05:13PM 32.8628 -95.8083 87° East 387 445 18,300 1,140 Climbing Fort Worth Center
05:14PM 32.8675 -95.6822 87° East 382 440 19,200 900 Climbing Fort Worth Center
05:15PM 32.8719 -95.5508 88° East 387 445 20,200 960 Climbing Fort Worth Center
05:16PM 32.8761 -95.4222 88° East 387 445 21,200 960 Climbing Fort Worth Center
05:17PM 32.8886 -95.2933 83° East 387 445 22,200 900 Climbing Fort Worth Center
05:18PM 32.9053 -95.1767 80° East 387 445 23,100 900 Climbing Fort Worth Center
05:19PM 32.9281 -95.0497 78° East 387 445 24,100 960 Climbing Fort Worth Center
05:20PM 32.9467 -94.9231 80° East 392 451 25,100 960 Climbing Fort Worth Center
05:21PM 32.9669 -94.7964 79° East 392 451 26,100 840 Climbing Fort Worth Center
05:22PM 32.9850 -94.6644 81° East 392 451 26,800 420 Climbing Fort Worth Center
05:23PM 33.0050 -94.5325 80° East 392 451 27,000 60 Climbing Fort Worth Center
05:24PM 33.0247 -94.3931 80° East 404 465 27,000  Level Fort Worth Center
05:25PM 33.0483 -94.2461 79° East 429 494 27,100 420 Climbing Fort Worth Center
05:26PM 33.0675 -94.1017 81° East 440 506 27,900 900 Climbing Fort Worth Center
05:27PM 33.0867 -93.9622 81° East 440 506 29,000 780 Climbing Fort Worth Center
05:28PM 33.1056 -93.8200 81° East 429 494 29,500 540 Climbing Fort Worth Center
05:29PM 33.1283 -93.6653 80° East 429 494 30,100 540 Climbing Fort Worth Center
05:30PM 33.1492 -93.5281 80° East 429 494 30,600 420 Climbing Fort Worth Center
05:31PM 33.1697 -93.3883 80° East 429 494 31,000 180 Climbing Fort Worth Center
05:32PM 33.1903 -93.2458 80° East 429 494 31,000  Level Fort Worth Center
05:33PM 33.2103 -93.1008 81° East 429 494 31,000  Level Fort Worth Center
05:34PM 33.2322 -92.9508 80° East 439 505 31,000  Level Fort Worth Center
05:35PM 33.2519 -92.8008 81° East 451 519 31,000  Level Fort Worth Center
05:36PM 33.2378 -92.6475 96° East 451 519 31,000  Level Fort Worth Center
05:37PM 33.2069 -92.4953 104° East 456 525 31,000  Level Fort Worth Center
05:38PM 33.1742 -92.3378 104° East 463 533 31,000  Level Memphis Center
05:39PM 33.1431 -92.1858 104° East 470 541 31,000  Level Memphis Center
05:40PM 33.1097 -92.0314 104° East 470 541 31,000  Level Memphis Center
05:41PM 33.0800 -91.8944 104° East 475 547 31,000  Level Memphis Center
05:42PM 33.0464 -91.7450 105° East 475 547 31,000  Level Memphis Center
05:43PM 33.0103 -91.5886 105° East 480 552 31,000  Level Memphis Center
05:44PM 32.9806 -91.4394 103° East 475 547 31,000  Level Memphis Center
05:45PM 32.9461 -91.2856 105° East 475 547 31,000  Level Memphis Center
05:46PM 32.9117 -91.1319 105° East 475 547 31,000  Level Memphis Center
05:47PM 32.8792 -90.9781 104° East 475 547 31,000  Level Memphis Center
05:48PM 32.8444 -90.8272 105° East 475 547 31,000  Level Memphis Center
05:49PM 32.8114 -90.6761 105° East 475 547 31,000  Level Memphis Center
05:50PM 32.7742 -90.5081 105° East 475 547 31,000  Level Memphis Center
05:51PM 32.7386 -90.3572 106° East 470 541 31,000  Level Memphis Center
05:52PM 32.7053 -90.2067 105° East 470 541 31,000  Level Memphis Center
05:53PM 32.6694 -90.0561 106° East 475 547 31,000  Level Memphis Center
05:54PM 32.6461 -89.9008 100° East 475 547 31,000  Level Memphis Center
05:55PM 32.6267 -89.7456 98° East 475 547 31,000  Level Memphis Center
05:56PM 32.6111 -89.6025 97° East 475 547 31,000  Level Memphis Center
05:57PM 32.5914 -89.4475 99° East 475 547 31,000  Level Memphis Center
05:58PM 32.5714 -89.2922 99° East 475 547 31,000  Level Memphis Center
05:59PM 32.5511 -89.1422 99° East 475 547 31,000  Level Memphis Center
06:00PM 32.5328 -88.9847 98° East 475 547 31,000  Level Memphis Center
06:01PM 32.5122 -88.8350 99° East 469 540 31,000  Level Memphis Center
06:04PM 32.4525 -88.3906 99° East 454 522 31,000  Level Atlanta Center
06:05PM 32.4475 -88.2353 92° East 467 537 31,000  Level Atlanta Center
06:06PM 32.4653 -88.0811 82° East 461 531 31,000 -300 Level Atlanta Center
06:07PM 32.4806 -87.9242 83° East 466 536 30,400 -600 Descending Atlanta Center
06:08PM 32.5061 -87.7725 79° East 472 543 29,900 -600 Descending Atlanta Center
06:09PM 32.5397 -87.6286 74° East 466 536 29,200 -660 Descending Atlanta Center
06:10PM 32.5711 -87.4844 75° East 455 524 28,600 -600 Descending Atlanta Center
06:11PM 32.6019 -87.3428 75° East 449 517 28,000 -600 Descending Atlanta Center
06:12PM 32.6350 -87.2011 74° East 449 517 27,400 -540 Descending Atlanta Center
06:13PM 32.6656 -87.0589 76° East 449 517 27,000 -240 Descending Atlanta Center
06:14PM 32.6961 -86.9144 76° East 449 517 27,000  Level Atlanta Center
06:15PM 32.7267 -86.7722 76° East 449 517 27,000  Level Atlanta Center
06:16PM 32.7589 -86.6275 75° East 449 517 27,000 -300 Level Atlanta Center
06:17PM 32.7892 -86.4750 77° East 454 522 26,500 -540 Descending Atlanta Center
06:18PM 32.8233 -86.3203 75° East 469 540 26,000 -540 Descending Atlanta Center
06:19PM 32.8533 -86.1703 77° East 469 540 25,500 -600 Descending Atlanta Center
06:20PM 32.8850 -86.0128 76° East 475 547 24,900 -540 Descending Atlanta Center
06:21PM 32.9167 -85.8625 76° East 475 547 24,500 -480 Descending Atlanta Center
06:22PM 32.9481 -85.7147 76° East 468 539 24,000 -600 Descending Atlanta Center
06:23PM 32.9792 -85.5667 76° East 468 539 23,400 -600 Descending Atlanta Center
06:24PM 33.0081 -85.4136 77° East 463 533 22,900 -540 Descending Atlanta Center
06:25PM 33.0389 -85.2653 76° East 463 533 22,400 -1,920 Descending Atlanta Center
06:26PM 33.1047 -85.1422 57° Northeast 414 476 19,100 -4,080 Descending Atlanta Center
06:27PM 33.1786 -85.0417 49° Northeast 402 463 14,300 -2,580 Descending Atlanta Center
06:28PM 33.2439 -84.9553 48° Northeast 369 425 14,000 -360 Descending Atlanta Center
06:29PM 33.2967 -84.8814 49° Northeast 340 391 13,600 -720 Descending Atlanta Center
06:30PM 33.3578 -84.8022 47° Northeast 321 369 12,600 -840 Descending Atlanta Center
06:31PM 33.4144 -84.7208 50° Northeast 321 369 12,000 -300 Descending Atlanta Center
06:32PM 33.4733 -84.6439 47° Northeast 316 364 12,000  Level Atlanta Center
06:33PM 33.5281 -84.5722 48° Northeast 296 341 12,000 -540 Level Atlanta Center
06:34PM 33.5431 -84.4875 78° East 253 291 11,000 -1,380 Descending Atlanta Center
06:35PM 33.5433 -84.4028 90° East 253 291 9,300 -2,400 Descending Atlanta Center
06:37PM 33.5500 -84.3000 86° East 227 261 5,800 -2,700 Descending Atlanta TRACON
06:38PM 33.5833 -84.2500 51° Northeast 225 259 3,400 -1,500 Descending Atlanta TRACON
06:39PM 33.6167 -84.2667 337° Northwest 191 220 3,000 -360 Descending Atlanta TRACON
06:39PM 33.6333 -84.3167 292° West 167 192 2,800 -600 Descending Atlanta TRACON
06:41PM 33.6333 -84.3667 270° West 150 173 1,800 -960 Descending Atlanta TRACON
06:43PM 33.6333 -84.4167 292° West  Level FlightAware Approximate
06:50PM 33.6367 -84.4279 292° West  Level Estimated
06:51PM 33.6367 -84.4279 292° West  Level Estimated